Time;durP1;ratioP1;P1;durP2;ratioP2;P2;SDS_P1;SDS_P2;PMS_P1;PMS_P2;Temp;Humidity;BMP_temperature;BMP_pressure;BME280_temperature;BME280_humidity;BME280_pressure;Samples;Min_cycle;Max_cycle;Signal;HPM_P1;HPM_P2
2022/04/24 00:00:04;;;;;;;12.38;6.53;;;11.20;99.90;;;;;;4961988;28;20024;-78
2022/04/24 00:02:29;;;;;;;11.48;6.30;;;11.20;99.50;;;;;;4977289;28;20057;-77
2022/04/24 00:04:55;;;;;;;11.02;6.53;;;11.20;99.80;;;;;;4962383;28;20064;-77
2022/04/24 00:07:21;;;;;;;10.90;6.43;;;11.10;99.90;;;;;;4977223;28;20046;-77
2022/04/24 00:09:47;;;;;;;11.45;5.80;;;11.10;99.90;;;;;;4994481;28;20113;-77
2022/04/24 00:12:16;;;;;;;10.32;6.53;;;11.00;99.90;;;;;;4974145;28;20120;-77
2022/04/24 00:14:46;;;;;;;15.40;6.78;;;11.00;99.90;;;;;;4982812;28;20132;-77
2022/04/24 00:17:12;;;;;;;10.95;6.30;;;11.00;99.90;;;;;;4993877;28;20093;-80
2022/04/24 00:19:38;;;;;;;10.55;6.63;;;10.90;99.90;;;;;;4994300;28;20037;-77
2022/04/24 00:22:04;;;;;;;10.52;6.70;;;10.90;99.90;;;;;;4993771;28;20050;-77
2022/04/24 00:24:32;;;;;;;12.75;6.53;;;10.90;99.90;;;;;;4993736;28;20071;-77
2022/04/24 00:26:58;;;;;;;11.13;6.20;;;10.80;99.90;;;;;;4991714;28;20442;-76
2022/04/24 00:29:24;;;;;;;11.93;7.03;;;10.80;99.90;;;;;;4961322;28;20107;-77
2022/04/24 00:31:50;;;;;;;10.65;6.50;;;10.70;99.90;;;;;;4977711;28;20057;-77
2022/04/24 00:34:16;;;;;;;12.60;6.65;;;10.70;99.90;;;;;;4993182;28;20060;-77
2022/04/24 00:36:42;;;;;;;9.57;5.75;;;10.70;99.90;;;;;;4976020;28;20092;-78
2022/04/24 00:39:08;;;;;;;10.48;6.03;;;10.70;99.90;;;;;;4992359;28;20049;-77
2022/04/24 00:41:34;;;;;;;10.30;5.95;;;10.60;99.90;;;;;;4990367;28;20246;-77
2022/04/24 00:43:59;;;;;;;11.55;6.60;;;10.50;99.90;;;;;;4993857;28;20046;-77
2022/04/24 00:46:42;;;;;;;13.23;6.30;;;10.50;99.90;;;;;;4977186;28;20129;-77
2022/04/24 00:49:09;;;;;;;9.35;5.72;;;10.50;99.90;;;;;;4993653;28;20061;-77
2022/04/24 00:51:37;;;;;;;11.85;6.72;;;10.40;99.90;;;;;;4976175;28;20138;-77
2022/04/24 00:54:09;;;;;;;9.63;5.93;;;10.40;99.90;;;;;;4961796;28;20061;-77
2022/04/24 00:56:37;;;;;;;11.68;6.68;;;10.40;99.90;;;;;;4991561;28;20045;-77
2022/04/24 00:59:05;;;;;;;11.98;6.03;;;10.40;99.90;;;;;;4993559;28;20061;-77
2022/04/24 01:01:33;;;;;;;10.48;6.55;;;10.30;99.90;;;;;;4992558;28;20054;-77
2022/04/24 01:04:03;;;;;;;12.95;6.80;;;10.30;99.90;;;;;;4977571;28;20068;-77
2022/04/24 01:06:36;;;;;;;10.73;6.53;;;10.30;99.90;;;;;;4976537;28;20092;-77
2022/04/24 01:09:13;;;;;;;11.15;6.05;;;10.30;99.90;;;;;;4993419;28;20116;-77
2022/04/24 01:11:39;;;;;;;10.55;6.20;;;10.30;99.90;;;;;;4991165;28;20458;-77
2022/04/24 01:14:05;;;;;;;10.93;6.32;;;10.30;99.90;;;;;;4993623;28;20041;-77
2022/04/24 01:16:31;;;;;;;10.85;5.75;;;10.20;99.90;;;;;;4992553;28;20698;-77
2022/04/24 01:18:58;;;;;;;10.50;6.07;;;10.20;99.90;;;;;;4977294;28;20046;-77
2022/04/24 01:21:24;;;;;;;11.00;6.03;;;10.20;99.90;;;;;;4976041;28;20139;-77
2022/04/24 01:23:50;;;;;;;10.23;6.05;;;10.20;99.90;;;;;;4977305;28;20053;-77
2022/04/24 01:26:15;;;;;;;11.82;6.60;;;10.20;99.90;;;;;;4975467;28;20529;-77
2022/04/24 01:28:41;;;;;;;11.88;5.90;;;10.20;99.90;;;;;;4976544;28;20077;-77
2022/04/24 01:31:07;;;;;;;11.13;6.20;;;10.10;99.90;;;;;;4993049;28;20052;-77
2022/04/24 01:33:33;;;;;;;10.93;5.30;;;10.10;99.90;;;;;;4992867;28;20046;-76
2022/04/24 01:35:58;;;;;;;10.80;7.05;;;10.10;99.90;;;;;;4976392;28;20092;-77
2022/04/24 01:38:24;;;;;;;10.00;5.93;;;10.10;99.90;;;;;;4992391;28;20057;-77
2022/04/24 01:40:50;;;;;;;10.98;6.20;;;10.10;99.90;;;;;;4974807;28;20056;-77
2022/04/24 01:43:18;;;;;;;11.50;6.30;;;10.00;99.90;;;;;;4993393;28;20089;-77
2022/04/24 01:45:44;;;;;;;10.63;6.50;;;10.00;99.90;;;;;;4992874;28;20543;-77
2022/04/24 01:48:10;;;;;;;10.77;6.00;;;10.00;99.90;;;;;;4993192;28;20132;-77
2022/04/24 01:50:35;;;;;;;11.95;5.95;;;9.90;99.90;;;;;;4972759;28;20050;-77
2022/04/24 01:53:01;;;;;;;12.45;6.40;;;9.80;99.90;;;;;;4975557;28;20092;-77
2022/04/24 01:55:27;;;;;;;11.15;5.47;;;9.80;99.90;;;;;;4995441;28;20115;-77
2022/04/24 01:57:53;;;;;;;13.55;6.30;;;9.70;99.90;;;;;;4979887;28;20058;-77
2022/04/24 02:00:19;;;;;;;;;;;9.70;99.90;;;;;;4996475;28;20057;-77
2022/04/24 02:02:46;;;;;;;11.32;6.43;;;9.60;99.90;;;;;;4996242;28;19921;-76
2022/04/24 02:05:12;;;;;;;13.57;7.28;;;9.50;99.90;;;;;;4980554;28;20068;-77
2022/04/24 02:07:38;;;;;;;10.23;6.15;;;9.40;99.90;;;;;;4979736;28;20414;-76
2022/04/24 02:10:04;;;;;;;9.30;5.85;;;9.40;99.90;;;;;;4996214;28;20054;-79
2022/04/24 02:12:30;;;;;;;12.73;6.50;;;9.30;99.90;;;;;;4978775;28;20046;-76
2022/04/24 02:14:59;;;;;;;11.43;6.25;;;9.30;99.90;;;;;;4980629;28;20064;-77
2022/04/24 02:17:24;;;;;;;10.32;6.13;;;9.30;99.90;;;;;;4996363;28;20081;-78
2022/04/24 02:19:50;;;;;;;10.32;5.85;;;9.20;99.90;;;;;;4979763;28;20112;-77
2022/04/24 02:22:16;;;;;;;10.25;5.90;;;9.20;99.90;;;;;;4963430;28;20053;-76
2022/04/24 02:24:41;;;;;;;9.60;5.57;;;9.20;99.90;;;;;;4995638;28;20049;-77
2022/04/24 02:27:07;;;;;;;10.18;6.07;;;9.10;99.90;;;;;;4994752;28;20046;-77
2022/04/24 02:29:33;;;;;;;10.32;5.60;;;9.10;99.90;;;;;;4995861;28;20432;-77
2022/04/24 02:31:59;;;;;;;10.88;5.22;;;9.10;99.90;;;;;;4996273;28;20395;-77
2022/04/24 02:34:26;;;;;;;10.98;6.30;;;9.00;99.90;;;;;;4996133;28;20131;-78
2022/04/24 02:36:52;;;;;;;9.98;5.72;;;8.90;99.90;;;;;;4995687;28;20050;-77
2022/04/24 02:39:18;;;;;;;;;;;9.10;99.90;;;;;;4996709;28;20050;-77
2022/04/24 02:41:44;;;;;;;11.50;6.00;;;8.90;99.90;;;;;;4993044;28;19936;-77
2022/04/24 02:44:09;;;;;;;10.15;6.05;;;8.80;99.90;;;;;;4979799;28;20049;-77
2022/04/24 02:46:35;;;;;;;9.13;5.63;;;8.80;99.90;;;;;;4978968;28;20034;-77
2022/04/24 02:49:01;;;;;;;10.45;6.32;;;8.80;99.90;;;;;;4995882;28;20046;-77
2022/04/24 02:51:26;;;;;;;11.07;5.50;;;8.80;99.90;;;;;;4979260;28;20042;-79
2022/04/24 02:53:52;;;;;;;8.90;5.10;;;8.70;99.90;;;;;;4995591;28;20050;-76
2022/04/24 02:56:18;;;;;;;12.77;5.90;;;8.70;99.90;;;;;;4994232;28;20505;-77
2022/04/24 02:58:44;;;;;;;10.40;6.00;;;8.70;99.90;;;;;;4995063;28;20058;-76
2022/04/24 03:01:11;;;;;;;9.35;5.45;;;8.60;99.90;;;;;;4979283;28;20061;-77
2022/04/24 03:03:38;;;;;;;8.48;5.43;;;8.60;99.90;;;;;;4994867;28;20050;-77
2022/04/24 03:06:04;;;;;;;13.05;5.97;;;8.50;99.90;;;;;;4995140;28;20046;-77
2022/04/24 03:08:31;;;;;;;8.48;5.20;;;8.50;99.90;;;;;;4994678;28;20049;-78
2022/04/24 03:10:56;;;;;;;;;;;8.40;99.90;;;;;;4993904;28;20061;-77
2022/04/24 03:13:22;;;;;;;9.88;5.70;;;8.30;99.90;;;;;;4995623;28;20316;-77
2022/04/24 03:15:47;;;;;;;8.75;5.50;;;8.30;99.90;;;;;;4995085;28;20061;-77
2022/04/24 03:18:13;;;;;;;9.30;5.40;;;8.30;99.90;;;;;;4995128;28;20526;-77
2022/04/24 03:20:39;;;;;;;9.48;5.40;;;8.50;99.90;;;;;;4994443;28;20578;-77
2022/04/24 03:23:05;;;;;;;10.75;5.85;;;8.20;99.90;;;;;;4995212;28;20064;-76
2022/04/24 03:25:30;;;;;;;10.18;5.65;;;8.30;99.90;;;;;;4961824;28;20388;-79
2022/04/24 03:27:56;;;;;;;9.98;5.68;;;8.20;99.90;;;;;;4994075;28;20052;-76
2022/04/24 03:30:22;;;;;;;8.32;5.00;;;8.20;99.90;;;;;;4994741;28;20391;-77
2022/04/24 03:32:48;;;;;;;;;;;8.20;99.90;;;;;;4978995;28;20086;-77
2022/04/24 03:35:14;;;;;;;9.20;5.43;;;8.20;99.90;;;;;;4994758;28;20371;-76
2022/04/24 03:37:41;;;;;;;9.82;4.63;;;8.20;99.90;;;;;;4994314;28;20053;-77
2022/04/24 03:40:08;;;;;;;10.77;5.30;;;8.10;99.90;;;;;;4993805;28;20053;-78
2022/04/24 03:42:35;;;;;;;9.73;5.85;;;8.10;99.90;;;;;;4993628;28;20089;-78
2022/04/24 03:45:04;;;;;;;11.82;5.72;;;8.10;99.90;;;;;;4978593;28;20137;-77
2022/04/24 03:47:29;;;;;;;9.32;5.18;;;8.00;99.90;;;;;;4978890;28;20045;-76
2022/04/24 03:49:55;;;;;;;9.35;5.50;;;8.00;99.90;;;;;;4977973;28;20484;-77
2022/04/24 03:52:21;;;;;;;9.25;5.22;;;8.00;99.90;;;;;;4993874;28;20128;-76
2022/04/24 03:54:46;;;;;;;9.95;4.85;;;7.90;99.90;;;;;;4978115;28;20449;-77
2022/04/24 03:57:13;;;;;;;9.90;6.07;;;7.90;99.90;;;;;;4976652;28;20136;-76
2022/04/24 03:59:39;;;;;;;11.00;5.22;;;7.90;99.90;;;;;;4961727;28;20471;-78
2022/04/24 04:02:05;;;;;;;11.98;5.68;;;7.90;99.90;;;;;;4994263;28;20053;-76
2022/04/24 04:04:30;;;;;;;9.23;5.63;;;7.80;99.90;;;;;;4978506;28;20057;-77
2022/04/24 04:06:56;;;;;;;8.32;5.28;;;7.80;99.90;;;;;;4977089;28;20418;-76
2022/04/24 04:09:22;;;;;;;10.45;5.78;;;8.00;99.90;;;;;;4978368;28;20133;-76
2022/04/24 04:11:48;;;;;;;10.82;5.55;;;7.80;99.90;;;;;;4975663;28;20487;-76
2022/04/24 04:14:13;;;;;;;9.75;5.60;;;7.70;99.90;;;;;;4994021;28;20048;-76
2022/04/24 04:16:40;;;;;;;9.82;5.53;;;7.70;99.90;;;;;;4977419;28;20060;-76
2022/04/24 04:19:06;;;;;;;8.73;5.18;;;7.70;99.90;;;;;;4993952;28;20499;-77
2022/04/24 04:21:31;;;;;;;8.40;5.53;;;7.70;99.90;;;;;;4977795;28;20038;-77
2022/04/24 04:23:57;;;;;;;9.35;5.70;;;7.70;99.90;;;;;;4993380;28;20041;-76
2022/04/24 04:26:23;;;;;;;11.50;5.80;;;7.60;99.90;;;;;;4992371;28;20123;-76
2022/04/24 04:28:50;;;;;;;9.02;5.53;;;7.60;99.90;;;;;;4961195;28;20048;-76
2022/04/24 04:31:17;;;;;;;11.32;5.70;;;7.60;99.90;;;;;;4993961;28;20136;-77
2022/04/24 04:33:43;;;;;;;10.88;5.53;;;7.50;99.90;;;;;;4993578;28;20509;-77
2022/04/24 04:36:09;;;;;;;11.52;5.82;;;7.50;99.90;;;;;;4977587;28;20046;-77
2022/04/24 04:38:35;;;;;;;;;;;7.50;99.90;;;;;;4994063;28;20061;-79
2022/04/24 04:41:01;;;;;;;10.15;5.35;;;7.50;99.90;;;;;;4991520;28;20282;-77
2022/04/24 04:43:27;;;;;;;11.18;5.78;;;7.40;99.90;;;;;;4977720;28;20092;-76
2022/04/24 04:45:53;;;;;;;10.38;5.97;;;7.50;99.90;;;;;;4977218;28;20085;-76
2022/04/24 04:48:19;;;;;;;9.18;5.35;;;7.40;99.90;;;;;;4993769;28;20050;-76
2022/04/24 04:50:45;;;;;;;12.88;5.90;;;7.70;99.90;;;;;;4976543;28;20107;-77
2022/04/24 04:53:10;;;;;;;11.02;6.22;;;7.40;99.90;;;;;;4993905;28;20049;-76
2022/04/24 04:55:36;;;;;;;11.18;5.50;;;7.40;99.90;;;;;;4991693;28;20054;-78
2022/04/24 04:58:02;;;;;;;10.20;5.88;;;7.30;99.90;;;;;;4993331;28;20045;-76
2022/04/24 05:00:28;;;;;;;9.63;5.93;;;7.30;99.90;;;;;;4989631;28;20070;-77
2022/04/24 05:02:54;;;;;;;11.02;6.18;;;7.40;99.90;;;;;;4973519;28;20081;-76
2022/04/24 05:05:19;;;;;;;9.52;5.82;;;7.40;99.90;;;;;;4974040;28;20046;-76
2022/04/24 05:07:45;;;;;;;11.13;6.00;;;7.40;99.90;;;;;;4973336;28;20053;-76
2022/04/24 05:10:11;;;;;;;9.52;6.32;;;7.40;99.90;;;;;;4989054;28;20503;-76
2022/04/24 05:12:37;;;;;;;10.85;6.05;;;7.50;99.90;;;;;;4989565;28;20050;-76
2022/04/24 05:15:05;;;;;;;9.52;5.72;;;7.50;99.90;;;;;;4957705;28;20050;-76
2022/04/24 05:17:31;;;;;;;10.32;5.97;;;7.50;99.90;;;;;;4990410;28;20467;-76
2022/04/24 05:19:57;;;;;;;9.20;5.40;;;7.50;99.90;;;;;;4989657;28;20050;-76
2022/04/24 05:22:23;;;;;;;10.70;6.05;;;7.50;99.90;;;;;;4989487;28;20377;-76
2022/04/24 05:24:49;;;;;;;;;;;7.60;99.90;;;;;;4989910;28;20054;-76
2022/04/24 05:27:15;;;;;;;9.68;5.50;;;7.60;99.90;;;;;;4991185;28;19928;-76
2022/04/24 05:29:41;;;;;;;9.82;5.22;;;7.60;99.90;;;;;;4961693;28;20085;-78
2022/04/24 05:32:07;;;;;;;12.23;5.70;;;7.70;99.90;;;;;;4977707;28;20046;-76
2022/04/24 05:34:33;;;;;;;10.63;5.90;;;7.70;99.90;;;;;;4993911;28;20145;-76
2022/04/24 05:36:59;;;;;;;10.77;6.22;;;7.70;99.90;;;;;;4993248;28;20125;-76
2022/04/24 05:39:25;;;;;;;9.63;5.85;;;8.00;99.90;;;;;;4977967;28;20054;-76
2022/04/24 05:41:50;;;;;;;10.80;5.80;;;7.80;99.90;;;;;;4991538;28;20046;-76
2022/04/24 05:44:16;;;;;;;10.65;6.25;;;7.80;99.90;;;;;;4994065;28;20125;-78
2022/04/24 05:46:42;;;;;;;10.75;5.72;;;7.80;99.90;;;;;;4994010;28;20050;-77
2022/04/24 05:49:07;;;;;;;11.25;6.07;;;7.80;99.90;;;;;;4977247;28;20431;-77
2022/04/24 05:51:33;;;;;;;12.18;6.20;;;7.80;99.90;;;;;;4992988;28;20574;-76
2022/04/24 05:54:00;;;;;;;10.27;6.38;;;7.80;99.90;;;;;;4976778;28;20105;-77
2022/04/24 05:56:25;;;;;;;;;;;7.80;99.90;;;;;;4990455;28;20137;-76
2022/04/24 05:58:51;;;;;;;12.82;6.38;;;7.80;99.90;;;;;;4975529;28;20008;-76
2022/04/24 06:01:17;;;;;;;11.98;6.13;;;7.80;99.90;;;;;;4993007;28;20058;-76
2022/04/24 06:03:44;;;;;;;11.00;5.80;;;7.90;99.90;;;;;;4993689;28;20392;-76
2022/04/24 06:06:10;;;;;;;;;;;8.00;99.90;;;;;;4977056;28;20054;-77
2022/04/24 06:08:36;;;;;;;10.40;5.68;;;8.00;99.90;;;;;;4976804;28;20367;-77
2022/04/24 06:11:01;;;;;;;10.88;6.00;;;8.10;99.90;;;;;;4990966;28;20054;-77
2022/04/24 06:13:28;;;;;;;10.38;6.28;;;8.20;99.90;;;;;;4993479;28;20062;-76
2022/04/24 06:15:57;;;;;;;;;;;8.30;99.90;;;;;;4976675;28;20404;-77
2022/04/24 06:18:24;;;;;;;9.77;5.97;;;8.50;99.90;;;;;;4977289;28;19975;-77
2022/04/24 06:20:51;;;;;;;11.98;5.75;;;8.60;99.90;;;;;;4992288;28;20549;-76
2022/04/24 06:23:17;;;;;;;13.40;6.72;;;8.60;99.90;;;;;;4993279;28;20050;-76
2022/04/24 06:25:42;;;;;;;10.75;5.72;;;8.70;99.90;;;;;;4975018;28;20103;-77
2022/04/24 06:28:08;;;;;;;15.55;5.72;;;8.90;99.90;;;;;;4992476;28;20050;-77
2022/04/24 06:30:40;;;;;;;11.35;5.63;;;8.90;99.90;;;;;;4976718;28;20053;-77
2022/04/24 06:33:10;;;;;;;8.60;5.30;;;9.00;99.90;;;;;;4992319;28;20051;-76
2022/04/24 06:35:36;;;;;;;10.20;5.72;;;9.10;99.90;;;;;;4992560;28;20116;-77
2022/04/24 06:38:02;;;;;;;8.18;4.75;;;9.10;99.90;;;;;;4991455;28;20064;-76
2022/04/24 06:40:28;;;;;;;;;;;9.20;99.90;;;;;;4992186;28;20189;-76
2022/04/24 06:43:04;;;;;;;9.63;5.50;;;9.20;99.90;;;;;;4991567;28;20012;-77
2022/04/24 06:45:37;;;;;;;10.02;5.20;;;9.30;99.90;;;;;;4992894;28;20053;-77
2022/04/24 06:48:06;;;;;;;10.93;6.47;;;9.40;99.90;;;;;;4975709;28;20169;-76
2022/04/24 06:50:32;;;;;;;10.57;5.68;;;9.40;99.90;;;;;;4991913;28;20057;-77
2022/04/24 06:53:03;;;;;;;11.07;5.85;;;9.40;99.90;;;;;;4975127;28;20093;-77
2022/04/24 06:55:31;;;;;;;12.02;5.65;;;9.40;99.90;;;;;;4975864;28;20046;-76
2022/04/24 06:57:58;;;;;;;10.43;5.13;;;9.50;99.90;;;;;;4991635;28;20062;-77
2022/04/24 07:00:26;;;;;;;10.68;5.05;;;9.50;99.90;;;;;;4992575;28;20369;-77
2022/04/24 07:02:51;;;;;;;9.40;5.22;;;9.60;99.90;;;;;;4995584;28;20088;-78
2022/04/24 07:05:20;;;;;;;11.25;5.25;;;9.70;99.90;;;;;;4995302;28;20045;-76
2022/04/24 07:07:46;;;;;;;11.00;5.07;;;9.80;99.90;;;;;;4994834;28;20500;-76
2022/04/24 07:10:11;;;;;;;9.95;5.43;;;9.90;99.90;;;;;;4993154;28;20053;-77
2022/04/24 07:12:51;;;;;;;9.00;5.13;;;10.00;99.90;;;;;;4978685;28;20056;-77
2022/04/24 07:15:18;;;;;;;10.77;5.70;;;10.10;99.90;;;;;;4994249;28;20060;-77
2022/04/24 07:17:48;;;;;;;9.60;5.28;;;10.10;99.90;;;;;;4995510;28;20068;-77
2022/04/24 07:20:15;;;;;;;10.48;4.90;;;10.30;99.90;;;;;;4978157;28;20041;-77
2022/04/24 07:22:48;;;;;;;10.57;5.15;;;10.30;99.90;;;;;;4962901;28;20073;-76
2022/04/24 07:25:24;;;;;;;12.52;5.47;;;10.40;99.90;;;;;;4977610;28;20371;-77
2022/04/24 07:27:51;;;;;;;12.05;6.90;;;10.40;99.90;;;;;;4994393;28;20053;-81
2022/04/24 07:30:17;;;;;;;;;;;10.50;99.90;;;;;;4977692;28;20073;-77
2022/04/24 07:32:49;;;;;;;10.32;4.95;;;10.60;99.90;;;;;;4979054;28;19922;-77
2022/04/24 07:35:20;;;;;;;8.77;4.75;;;10.70;99.90;;;;;;4977354;28;20061;-77
2022/04/24 07:37:47;;;;;;;10.45;5.15;;;10.70;99.90;;;;;;4978860;28;20457;-77
2022/04/24 07:40:14;;;;;;;11.90;5.03;;;10.60;99.90;;;;;;4993372;28;20100;-78
2022/04/24 07:43:00;;;;;;;10.15;4.93;;;10.60;99.90;;;;;;4977943;28;20132;-77
2022/04/24 07:45:30;;;;;;;9.40;4.80;;;10.60;99.90;;;;;;4978903;28;20176;-77
2022/04/24 07:47:57;;;;;;;8.75;5.03;;;10.50;99.90;;;;;;4994764;28;20065;-79
2022/04/24 07:50:25;;;;;;;9.90;5.15;;;10.60;99.90;;;;;;4977535;28;20155;-77
2022/04/24 07:52:52;;;;;;;8.10;4.80;;;10.60;99.90;;;;;;4978464;28;20132;-76
2022/04/24 07:55:19;;;;;;;9.85;4.60;;;10.60;99.90;;;;;;4973145;28;20372;-76
2022/04/24 07:57:49;;;;;;;9.95;4.70;;;10.60;99.90;;;;;;4991438;28;20072;-77
2022/04/24 08:00:17;;;;;;;10.07;4.60;;;10.60;99.90;;;;;;4994085;28;20050;-77
2022/04/24 08:03:09;;;;;;;9.40;4.38;;;10.70;99.90;;;;;;4977958;28;20488;-77
2022/04/24 08:05:40;;;;;;;9.38;4.70;;;10.70;99.90;;;;;;4994256;28;20045;-77
2022/04/24 08:08:09;;;;;;;13.15;4.60;;;10.80;99.90;;;;;;4993953;28;20053;-77
2022/04/24 08:10:37;;;;;;;13.60;4.85;;;10.80;99.90;;;;;;4976560;28;20058;-78
2022/04/24 08:13:04;;;;;;;8.90;5.00;;;11.00;99.90;;;;;;4993516;28;20049;-78
2022/04/24 08:15:35;;;;;;;8.73;4.40;;;10.90;99.90;;;;;;4946344;28;20177;-76
2022/04/24 08:18:02;;;;;;;9.93;4.47;;;10.90;99.90;;;;;;4993470;28;20050;-80
2022/04/24 08:20:28;;;;;;;9.70;4.68;;;11.00;99.90;;;;;;4991843;28;20151;-77
2022/04/24 08:22:57;;;;;;;9.13;4.60;;;11.10;99.90;;;;;;4960713;28;20179;-77
2022/04/24 08:25:26;;;;;;;9.60;5.00;;;11.10;99.90;;;;;;4965028;28;20074;-77
2022/04/24 08:27:53;;;;;;;8.07;4.32;;;11.20;99.90;;;;;;4989119;28;20043;-77
2022/04/24 08:30:22;;;;;;;9.35;4.07;;;11.20;99.90;;;;;;4990980;28;20042;-77
2022/04/24 08:32:48;;;;;;;7.38;3.85;;;11.30;99.90;;;;;;4991554;28;20049;-77
2022/04/24 08:35:15;;;;;;;;;;;11.40;99.90;;;;;;4990798;28;20154;-77
2022/04/24 08:37:42;;;;;;;11.57;3.83;;;11.50;99.90;;;;;;4989468;28;19971;-77
2022/04/24 08:40:10;;;;;;;6.60;3.60;;;11.60;99.90;;;;;;4989773;28;20046;-78
2022/04/24 08:42:37;;;;;;;10.77;3.83;;;11.60;99.90;;;;;;4990012;28;20060;-76
2022/04/24 08:45:04;;;;;;;6.90;3.28;;;11.70;99.90;;;;;;4991331;28;20049;-79
2022/04/24 08:47:30;;;;;;;7.40;3.47;;;11.80;99.90;;;;;;4989676;28;20054;-78
2022/04/24 08:49:58;;;;;;;;;;;11.90;99.90;;;;;;4989903;28;20054;-76
2022/04/24 08:52:24;;;;;;;;;;;12.00;99.90;;;;;;4973968;28;19968;-77
2022/04/24 08:54:51;;;;;;;7.80;3.22;;;12.10;99.90;;;;;;4991585;28;19925;-77
2022/04/24 08:57:18;;;;;;;5.60;2.92;;;12.20;99.90;;;;;;4990351;28;20054;-78
2022/04/24 08:59:44;;;;;;;7.13;3.00;;;12.30;99.90;;;;;;4977734;28;20042;-72
2022/04/24 09:02:10;;;;;;;5.05;2.60;;;12.30;97.20;;;;;;5003876;28;20171;-72
2022/04/24 09:04:37;;;;;;;5.45;3.08;;;12.40;96.80;;;;;;4989702;28;20811;-72
2022/04/24 09:07:05;;;;;;;6.65;2.80;;;12.50;96.70;;;;;;4990191;28;20056;-73
2022/04/24 09:09:43;;;;;;;7.68;2.90;;;12.60;95.70;;;;;;4973786;28;20054;-72
2022/04/24 09:12:13;;;;;;;8.48;2.92;;;12.70;95.60;;;;;;4971530;28;20085;-72
2022/04/24 09:14:39;;;;;;;5.95;2.65;;;12.70;96.30;;;;;;4991031;28;20057;-72
2022/04/24 09:17:06;;;;;;;;;;;12.80;95.90;;;;;;5010755;28;20046;-73
2022/04/24 09:19:33;;;;;;;6.47;2.75;;;12.90;95.70;;;;;;4993559;28;19928;-72
2022/04/24 09:22:06;;;;;;;5.10;2.67;;;13.10;96.20;;;;;;4973370;28;20046;-72
2022/04/24 09:24:41;;;;;;;6.40;2.55;;;13.20;94.30;;;;;;5001769;28;20042;-71
2022/04/24 09:27:08;;;;;;;5.05;2.40;;;13.30;93.70;;;;;;4984226;28;20054;-73
2022/04/24 09:29:34;;;;;;;5.03;2.70;;;13.40;90.80;;;;;;4993563;28;20046;-72
2022/04/24 09:31:59;;;;;;;10.95;2.45;;;13.50;90.80;;;;;;4982388;28;20053;-71
2022/04/24 09:34:33;;;;;;;5.85;2.65;;;13.60;84.20;;;;;;4956682;28;20640;-71
2022/04/24 09:37:02;;;;;;;4.03;2.67;;;13.60;81.70;;;;;;4973246;28;20072;-71
2022/04/24 09:39:34;;;;;;;8.02;2.50;;;13.60;82.00;;;;;;4992287;28;20632;-72
2022/04/24 09:42:11;;;;;;;5.90;2.80;;;13.70;83.30;;;;;;4990584;28;20473;-71
2022/04/24 09:44:46;;;;;;;5.70;2.55;;;13.80;82.90;;;;;;5007604;28;20057;-77
2022/04/24 09:47:13;;;;;;;5.60;2.93;;;13.80;83.60;;;;;;4989048;28;20050;-77
2022/04/24 09:49:41;;;;;;;6.03;2.92;;;13.90;83.10;;;;;;4974060;28;20053;-77
2022/04/24 09:52:13;;;;;;;4.40;2.63;;;14.00;84.50;;;;;;4989622;28;20050;-79
2022/04/24 09:54:46;;;;;;;6.75;2.63;;;14.20;81.80;;;;;;4972200;28;20052;-78
2022/04/24 09:57:13;;;;;;;6.07;2.90;;;14.30;81.10;;;;;;4988074;28;20061;-77
2022/04/24 09:59:43;;;;;;;6.57;2.63;;;14.30;80.80;;;;;;4989871;28;20131;-76
2022/04/24 10:02:10;;;;;;;6.10;2.65;;;14.40;80.10;;;;;;4988748;28;20057;-78
2022/04/24 10:04:38;;;;;;;9.18;2.72;;;14.50;80.60;;;;;;4989616;28;20458;-76
2022/04/24 10:07:12;;;;;;;4.95;2.50;;;14.50;80.20;;;;;;4973874;28;20061;-76
2022/04/24 10:09:40;;;;;;;5.90;2.88;;;14.60;81.00;;;;;;4986036;28;20042;-77
2022/04/24 10:12:08;;;;;;;6.18;2.53;;;14.70;80.20;;;;;;4971270;28;20148;-77
2022/04/24 10:14:43;;;;;;;10.98;3.22;;;14.70;77.20;;;;;;4991082;28;20046;-78
2022/04/24 10:17:21;;;;;;;5.25;2.53;;;14.80;74.80;;;;;;4993288;28;20112;-79
2022/04/24 10:20:37;;;;;;;8.00;2.55;;;14.80;74.60;;;;;;4976979;28;20053;-79
2022/04/24 10:23:03;;;;;;;8.90;2.88;;;14.80;70.50;;;;;;4958484;28;20586;-78
2022/04/24 10:25:40;;;;;;;4.38;2.50;;;14.80;71.70;;;;;;4992341;28;20112;-78
2022/04/24 10:28:36;;;;;;;4.45;2.22;;;14.90;73.20;;;;;;4992019;28;20049;-78
2022/04/24 10:31:03;;;;;;;6.88;2.47;;;15.00;71.40;;;;;;4976338;28;20054;-79
2022/04/24 10:33:34;;;;;;;5.60;2.67;;;15.10;71.20;;;;;;4975491;28;20575;-78
2022/04/24 10:36:15;;;;;;;6.88;2.90;;;15.10;72.30;;;;;;4976374;28;20054;-78
2022/04/24 10:38:52;;;;;;;4.85;2.70;;;15.30;72.60;;;;;;4976949;28;20065;-78
2022/04/24 10:41:23;;;;;;;8.18;2.80;;;15.40;71.50;;;;;;4991315;28;20082;-78
2022/04/24 10:43:52;;;;;;;5.43;2.55;;;15.40;71.20;;;;;;4993309;28;20121;-78
2022/04/24 10:46:31;;;;;;;5.65;2.35;;;15.50;71.00;;;;;;4992067;28;20084;-78
2022/04/24 10:49:11;;;;;;;6.00;2.45;;;15.50;69.10;;;;;;4993579;28;20061;-78
2022/04/24 10:51:39;;;;;;;7.53;2.53;;;15.50;72.00;;;;;;4972124;28;20154;-77
2022/04/24 10:54:11;;;;;;;7.93;2.55;;;15.60;71.80;;;;;;4992861;28;20049;-77
2022/04/24 10:56:38;;;;;;;5.95;2.55;;;15.70;70.10;;;;;;4982835;28;20145;-78
2022/04/24 10:59:16;;;;;;;12.43;2.78;;;15.80;72.00;;;;;;4957922;28;20410;-78
2022/04/24 11:01:53;;;;;;;4.72;2.28;;;16.00;71.10;;;;;;4961657;28;20057;-76
2022/04/24 11:04:20;;;;;;;10.00;2.55;;;16.10;71.60;;;;;;4977933;28;20569;-77
2022/04/24 11:06:53;;;;;;;3.90;2.38;;;16.20;70.10;;;;;;4995237;28;20050;-77
2022/04/24 11:09:19;;;;;;;6.95;2.40;;;16.40;67.60;;;;;;4994611;28;20038;-78
2022/04/24 11:11:50;;;;;;;4.25;2.42;;;16.50;66.30;;;;;;4961763;28;20046;-78
2022/04/24 11:14:22;;;;;;;6.20;2.90;;;16.50;65.90;;;;;;4974940;28;20496;-78
2022/04/24 11:16:53;;;;;;;5.75;2.25;;;16.50;64.20;;;;;;4984501;28;20050;-77
2022/04/24 11:19:39;;;;;;;3.38;2.30;;;16.30;62.90;;;;;;4960058;28;20057;-77
2022/04/24 11:22:11;;;;;;;3.97;2.28;;;16.20;65.40;;;;;;4959913;28;21045;-77
2022/04/24 11:24:38;;;;;;;5.72;2.75;;;16.20;64.90;;;;;;4975080;28;20106;-77
2022/04/24 11:27:09;;;;;;;4.32;2.35;;;16.30;65.00;;;;;;4990052;28;20046;-77
2022/04/24 11:29:35;;;;;;;6.47;2.72;;;16.40;64.50;;;;;;4958984;28;20112;-77
2022/04/24 11:32:02;;;;;;;6.10;2.83;;;16.60;65.60;;;;;;4991931;28;20056;-77
2022/04/24 11:34:28;;;;;;;7.68;2.42;;;16.80;65.90;;;;;;4991382;28;20431;-77
2022/04/24 11:36:57;;;;;;;7.07;2.70;;;17.00;64.30;;;;;;4991462;28;20108;-77
2022/04/24 11:39:23;;;;;;;8.13;2.40;;;17.20;64.40;;;;;;4959092;28;20403;-77
2022/04/24 11:41:58;;;;;;;4.47;2.53;;;17.40;63.00;;;;;;4989588;28;20619;-77
2022/04/24 11:50:14;;;;;;;5.55;2.58;;;18.00;61.00;;;;;;4975491;28;20456;-77
2022/04/24 11:52:46;;;;;;;6.63;2.30;;;18.20;59.10;;;;;;4974305;28;20819;-77
2022/04/24 11:55:21;;;;;;;4.32;2.55;;;18.30;60.60;;;;;;4974777;28;20042;-77
2022/04/24 11:58:02;;;;;;;3.70;2.50;;;18.60;57.80;;;;;;4985499;28;20050;-77
2022/04/24 12:00:35;;;;;;;7.03;2.42;;;18.50;57.50;;;;;;4974345;28;20487;-77
2022/04/24 12:03:01;;;;;;;5.90;3.08;;;18.30;58.00;;;;;;4976907;28;20050;-77
2022/04/24 12:05:28;;;;;;;5.40;2.38;;;18.30;57.90;;;;;;4974496;28;20514;-77
2022/04/24 12:07:56;;;;;;;3.88;2.20;;;18.70;59.80;;;;;;4990917;28;20050;-78
2022/04/24 12:10:24;;;;;;;6.72;2.67;;;19.20;60.30;;;;;;4958024;28;20145;-79
2022/04/24 12:12:51;;;;;;;7.65;2.70;;;19.40;57.40;;;;;;4957397;28;20096;-78
2022/04/24 12:15:24;;;;;;;6.13;2.67;;;19.10;55.60;;;;;;4957991;28;20074;-77
2022/04/24 12:17:50;;;;;;;6.78;2.53;;;18.60;56.40;;;;;;4990066;28;20097;-77
2022/04/24 12:20:17;;;;;;;4.72;2.45;;;18.50;59.00;;;;;;4990644;28;20085;-77
2022/04/24 12:22:43;;;;;;;5.47;2.53;;;19.00;60.30;;;;;;4941713;28;20749;-76
2022/04/24 12:25:12;;;;;;;;;;;19.20;55.60;;;;;;4976759;28;20068;-77
2022/04/24 12:27:39;;;;;;;4.13;2.40;;;19.40;58.10;;;;;;4991256;28;19921;-77
2022/04/24 12:30:06;;;;;;;5.43;2.70;;;19.70;57.70;;;;;;4993092;28;20495;-77
2022/04/24 12:32:34;;;;;;;4.75;2.63;;;20.10;56.80;;;;;;4989577;28;20046;-77
2022/04/24 12:35:00;;;;;;;4.88;2.40;;;20.40;55.40;;;;;;4992518;28;20068;-77
2022/04/24 12:37:31;;;;;;;5.63;2.40;;;20.30;55.00;;;;;;4990256;28;20046;-78
2022/04/24 12:39:58;;;;;;;4.07;2.25;;;20.40;56.30;;;;;;4990521;28;20495;-78
2022/04/24 12:42:25;;;;;;;7.03;2.78;;;20.60;55.80;;;;;;4971852;28;20049;-79
2022/04/24 12:44:52;;;;;;;5.30;2.63;;;20.40;52.70;;;;;;4991863;28;20124;-77
2022/04/24 12:47:19;;;;;;;7.40;2.80;;;20.00;53.30;;;;;;4977038;28;20046;-79
2022/04/24 12:49:45;;;;;;;3.83;2.58;;;19.60;53.40;;;;;;4971197;28;20046;-77
2022/04/24 12:52:12;;;;;;;9.25;2.40;;;19.10;53.60;;;;;;4971743;28;20141;-77
2022/04/24 12:54:38;;;;;;;4.20;2.20;;;19.00;54.70;;;;;;4991176;28;20082;-77
2022/04/24 12:57:04;;;;;;;;;;;19.20;55.00;;;;;;4991521;28;20407;-77
2022/04/24 12:59:30;;;;;;;5.33;2.23;;;19.40;55.20;;;;;;4992419;28;20374;-77